Polfoss — V2PN7 — position and weather

sailwx.info

Track history (hours):
 
Tides and Currents Weather Stations Pressure Air Temp Water Temp Dewpoint Dewpoint Depression Visibility Wind Speed Wind Dir Waves Ship Positions

Polfoss

Last reported at 2014-Nov-20 21:17 UTC. Time now 2014-Nov-21 02:32 UTC.
Position N 69°34' E 018°49'.

Length 82 m; draft 6.2 m.

Type: Cargo ship. MMSI: 305081000.

Date/timePositionNaut miles runAvg speedWind from/ knotsBaromVisibWave heightAir tempDewpointWater temp
2014-Nov-20 21:17N 69°34' E 018°49'140 8.8
2014-Nov-20 05:19N 67°51' E 014°26'1114.8
2014-Nov-20 04:33N 67°41' E 014°14'1515.0
2014-Nov-20 03:33N 67°27' E 014°25'1414.2
2014-Nov-20 02:33N 67°14' E 014°09'1514.9
2014-Nov-20 01:33N 67°02' E 013°46'4113.7
2014-Nov-19 22:32N 66°25' E 012°59'2014.7
2014-Nov-19 21:09N 66°06' E 012°42'7114.1
2014-Nov-19 16:07N 65°00' E 011°37'814.7
2014-Nov-19 15:33N 64°55' E 011°22'  
2014-Nov-16 05:04N 54°55' E 000°12'714.8
2014-Nov-16 04:33N 54°47' E 000°13'1515.0
2014-Nov-16 03:33N 54°32' E 000°15'1515.0
2014-Nov-16 02:33N 54°17' E 000°17'1514.9
2014-Nov-16 01:33N 54°02' E 000°20'1514.6
2014-Nov-16 00:33N 53°48' E 000°22'1313.4
2014-Nov-15 23:33N 53°35' E 000°18'1111.0
2014-Nov-15 22:33N 53°35' W 000°01'2 2.3
2014-Nov-15 21:33N 53°35' W 000°04'0 0.0
2014-Nov-15 20:33N 53°35' W 000°04'0 0.0
2014-Nov-15 19:33N 53°35' W 000°04'0 0.0
2014-Nov-15 18:33N 53°35' W 000°04'0 0.0
2014-Nov-15 17:33N 53°35' W 000°04'0 0.0
2014-Nov-15 16:33N 53°35' W 000°04'0 0.0
2014-Nov-15 15:33N 53°35' W 000°04'0 0.0
2014-Nov-15 14:33N 53°35' W 000°04'0 0.0
2014-Nov-15 13:33N 53°35' W 000°04'0 0.0
2014-Nov-15 12:33N 53°35' W 000°04'0 0.0
2014-Nov-15 11:33N 53°35' W 000°04'0 0.0
2014-Nov-15 10:33N 53°35' W 000°04'0 0.0
2014-Nov-15 09:33N 53°35' W 000°04'0 0.0
2014-Nov-15 08:33N 53°35' W 000°04'0 0.0
2014-Nov-15 07:33N 53°35' W 000°04'0 0.0
2014-Nov-15 06:33N 53°35' W 000°04'0 0.0
2014-Nov-15 05:34N 53°35' W 000°04'0 0.0
2014-Nov-15 04:33N 53°35' W 000°04'0 0.0
2014-Nov-15 03:33N 53°35' W 000°04'0 0.0
2014-Nov-15 02:33N 53°35' W 000°04'0 0.0
2014-Nov-15 01:33N 53°35' W 000°04'0 0.0
2014-Nov-15 00:33N 53°35' W 000°04'0 0.0
2014-Nov-14 23:33N 53°35' W 000°04'0 0.0
2014-Nov-14 22:33N 53°35' W 000°04'0 0.0
2014-Nov-14 21:33N 53°35' W 000°04'0 0.0
2014-Nov-14 20:33N 53°35' W 000°04'0 0.0
2014-Nov-14 19:34N 53°35' W 000°04'0 0.0
2014-Nov-14 18:33N 53°35' W 000°04'0 0.0
2014-Nov-14 17:33N 53°35' W 000°04'0 0.0
2014-Nov-14 16:33N 53°35' W 000°04'0 0.0
2014-Nov-14 15:33N 53°35' W 000°04'0 0.0
2014-Nov-14 14:33N 53°35' W 000°04'0 0.0
2014-Nov-14 12:33N 53°35' W 000°04'0 0.0
2014-Nov-14 11:33N 53°35' W 000°04'0 0.0
2014-Nov-14 10:33N 53°35' W 000°04'1 0.9
2014-Nov-14 09:33N 53°35' W 000°03'5 5.0
2014-Nov-14 08:33N 53°34' E 000°05'10 9.6
2014-Nov-14 07:32N 53°30' E 000°20'6 6.4
2014-Nov-14 06:33N 53°28' E 000°30'13911.6
2014-Nov-13 18:33N 52°31' E 004°01'1313.4
2014-Nov-13 17:33N 52°29' E 004°23'8 7.8
2014-Nov-13 16:33N 52°28' E 004°36'2 2.4
2014-Nov-13 15:33N 52°28' E 004°40'0 0.0
2014-Nov-13 14:33N 52°28' E 004°40'0 0.0
2014-Nov-13 13:34N 52°28' E 004°40'0 0.0
2014-Nov-13 12:33N 52°28' E 004°40'0 0.0
2014-Nov-13 11:34N 52°28' E 004°40'0 0.0
2014-Nov-13 10:33N 52°28' E 004°40'0 0.0
2014-Nov-13 09:33N 52°28' E 004°40'0 0.0
2014-Nov-13 08:33N 52°28' E 004°40'0 0.0
2014-Nov-13 07:33N 52°28' E 004°40'0 0.0
2014-Nov-13 06:34N 52°28' E 004°40'0 0.0
2014-Nov-13 05:33N 52°28' E 004°40'0 0.0
2014-Nov-13 04:34N 52°28' E 004°40'0 0.0
2014-Nov-13 03:34N 52°28' E 004°40'0 0.0
2014-Nov-13 02:33N 52°28' E 004°40'0 0.0
2014-Nov-13 01:33N 52°28' E 004°40'0 0.0
2014-Nov-13 00:34N 52°28' E 004°40'0 0.0
2014-Nov-12 23:33N 52°28' E 004°40'0 0.0
2014-Nov-12 22:34N 52°28' E 004°40'0 0.0
2014-Nov-12 21:34N 52°28' E 004°40'0 0.0
2014-Nov-12 20:33N 52°28' E 004°40'0 0.0
2014-Nov-12 18:33N 52°28' E 004°40'0 0.0
2014-Nov-12 17:33N 52°28' E 004°40'0 0.0
2014-Nov-12 16:33N 52°28' E 004°40'0 0.0
2014-Nov-12 15:33N 52°28' E 004°40'0 0.0
2014-Nov-12 14:33N 52°28' E 004°40'0 0.0
2014-Nov-12 13:33N 52°28' E 004°40'0 0.0
2014-Nov-12 12:33N 52°28' E 004°40'0 0.0
2014-Nov-12 11:33N 52°28' E 004°40'0 0.0
2014-Nov-12 10:34N 52°28' E 004°40'0 0.0
2014-Nov-12 09:33N 52°28' E 004°40'0 0.0
2014-Nov-12 08:33N 52°28' E 004°40'0 0.0
2014-Nov-12 07:33N 52°28' E 004°40'0 0.0
2014-Nov-12 06:33N 52°28' E 004°40'0 0.0
2014-Nov-12 05:34N 52°28' E 004°40'0 0.0
2014-Nov-12 04:33N 52°28' E 004°40'0 0.0
2014-Nov-12 03:34N 52°28' E 004°40'0 0.0
2014-Nov-12 02:33N 52°28' E 004°40'0 0.0
2014-Nov-12 01:33N 52°28' E 004°40'0 0.0
2014-Nov-12 00:33N 52°28' E 004°40'0 0.0
2014-Nov-11 23:33N 52°28' E 004°40'0 0.0
2014-Nov-11 22:34N 52°28' E 004°40'0 0.0
2014-Nov-11 21:33N 52°28' E 004°40'0 0.0
2014-Nov-11 20:33N 52°28' E 004°40'0 0.0
2014-Nov-11 19:33N 52°28' E 004°40'2 2.4
2014-Nov-11 18:34N 52°28' E 004°36'5 5.2
2014-Nov-11 17:34N 52°31' E 004°29'1212.2
2014-Nov-11 16:33N 52°43' E 004°30'1313.3
2014-Nov-11 15:34N 52°56' E 004°29'  
Track history (hours):
 
Tides and Currents Weather Stations Pressure Air Temp Water Temp Dewpoint Dewpoint Depression Visibility Wind Speed Wind Dir Waves Ship Positions

Polfoss

Last reported at 2014-Nov-20 21:17 UTC. Time now 2014-Nov-21 02:32 UTC.
Position N 69°34' E 018°49'.

Length 82 m; draft 6.2 m.

Type: Cargo ship. MMSI: 305081000.

Date/timePositionNaut miles runAvg speedWind from/ knotsBaromVisibWave heightAir tempDewpointWater temp
2014-Nov-20 21:17N 69°34' E 018°49'140 8.8
2014-Nov-20 05:19N 67°51' E 014°26'1114.8
2014-Nov-20 04:33N 67°41' E 014°14'1515.0
2014-Nov-20 03:33N 67°27' E 014°25'1414.2
2014-Nov-20 02:33N 67°14' E 014°09'1514.9
2014-Nov-20 01:33N 67°02' E 013°46'4113.7
2014-Nov-19 22:32N 66°25' E 012°59'2014.7
2014-Nov-19 21:09N 66°06' E 012°42'7114.1
2014-Nov-19 16:07N 65°00' E 011°37'814.7
2014-Nov-19 15:33N 64°55' E 011°22'  
2014-Nov-16 05:04N 54°55' E 000°12'714.8
2014-Nov-16 04:33N 54°47' E 000°13'1515.0
2014-Nov-16 03:33N 54°32' E 000°15'1515.0
2014-Nov-16 02:33N 54°17' E 000°17'1514.9
2014-Nov-16 01:33N 54°02' E 000°20'1514.6
2014-Nov-16 00:33N 53°48' E 000°22'1313.4
2014-Nov-15 23:33N 53°35' E 000°18'1111.0
2014-Nov-15 22:33N 53°35' W 000°01'2 2.3
2014-Nov-15 21:33N 53°35' W 000°04'0 0.0
2014-Nov-15 20:33N 53°35' W 000°04'0 0.0
2014-Nov-15 19:33N 53°35' W 000°04'0 0.0
2014-Nov-15 18:33N 53°35' W 000°04'0 0.0
2014-Nov-15 17:33N 53°35' W 000°04'0 0.0
2014-Nov-15 16:33N 53°35' W 000°04'0 0.0
2014-Nov-15 15:33N 53°35' W 000°04'0 0.0
2014-Nov-15 14:33N 53°35' W 000°04'0 0.0
2014-Nov-15 13:33N 53°35' W 000°04'0 0.0
2014-Nov-15 12:33N 53°35' W 000°04'0 0.0
2014-Nov-15 11:33N 53°35' W 000°04'0 0.0
2014-Nov-15 10:33N 53°35' W 000°04'0 0.0
2014-Nov-15 09:33N 53°35' W 000°04'0 0.0
2014-Nov-15 08:33N 53°35' W 000°04'0 0.0
2014-Nov-15 07:33N 53°35' W 000°04'0 0.0
2014-Nov-15 06:33N 53°35' W 000°04'0 0.0
2014-Nov-15 05:34N 53°35' W 000°04'0 0.0
2014-Nov-15 04:33N 53°35' W 000°04'0 0.0
2014-Nov-15 03:33N 53°35' W 000°04'0 0.0
2014-Nov-15 02:33N 53°35' W 000°04'0 0.0
2014-Nov-15 01:33N 53°35' W 000°04'0 0.0
2014-Nov-15 00:33N 53°35' W 000°04'0 0.0
2014-Nov-14 23:33N 53°35' W 000°04'0 0.0
2014-Nov-14 22:33N 53°35' W 000°04'0 0.0
2014-Nov-14 21:33N 53°35' W 000°04'0 0.0
2014-Nov-14 20:33N 53°35' W 000°04'0 0.0
2014-Nov-14 19:34N 53°35' W 000°04'0 0.0
2014-Nov-14 18:33N 53°35' W 000°04'0 0.0
2014-Nov-14 17:33N 53°35' W 000°04'0 0.0
2014-Nov-14 16:33N 53°35' W 000°04'0 0.0
2014-Nov-14 15:33N 53°35' W 000°04'0 0.0
2014-Nov-14 14:33N 53°35' W 000°04'0 0.0
2014-Nov-14 12:33N 53°35' W 000°04'0 0.0
2014-Nov-14 11:33N 53°35' W 000°04'0 0.0
2014-Nov-14 10:33N 53°35' W 000°04'1 0.9
2014-Nov-14 09:33N 53°35' W 000°03'5 5.0
2014-Nov-14 08:33N 53°34' E 000°05'10 9.6
2014-Nov-14 07:32N 53°30' E 000°20'6 6.4
2014-Nov-14 06:33N 53°28' E 000°30'13911.6
2014-Nov-13 18:33N 52°31' E 004°01'1313.4
2014-Nov-13 17:33N 52°29' E 004°23'8 7.8
2014-Nov-13 16:33N 52°28' E 004°36'2 2.4
2014-Nov-13 15:33N 52°28' E 004°40'0 0.0
2014-Nov-13 14:33N 52°28' E 004°40'0 0.0
2014-Nov-13 13:34N 52°28' E 004°40'0 0.0
2014-Nov-13 12:33N 52°28' E 004°40'0 0.0
2014-Nov-13 11:34N 52°28' E 004°40'0 0.0
2014-Nov-13 10:33N 52°28' E 004°40'0 0.0
2014-Nov-13 09:33N 52°28' E 004°40'0 0.0
2014-Nov-13 08:33N 52°28' E 004°40'0 0.0
2014-Nov-13 07:33N 52°28' E 004°40'0 0.0
2014-Nov-13 06:34N 52°28' E 004°40'0 0.0
2014-Nov-13 05:33N 52°28' E 004°40'0 0.0
2014-Nov-13 04:34N 52°28' E 004°40'0 0.0
2014-Nov-13 03:34N 52°28' E 004°40'0 0.0
2014-Nov-13 02:33N 52°28' E 004°40'0 0.0
2014-Nov-13 01:33N 52°28' E 004°40'0 0.0
2014-Nov-13 00:34N 52°28' E 004°40'0 0.0
2014-Nov-12 23:33N 52°28' E 004°40'0 0.0
2014-Nov-12 22:34N 52°28' E 004°40'0 0.0
2014-Nov-12 21:34N 52°28' E 004°40'0 0.0
2014-Nov-12 20:33N 52°28' E 004°40'0 0.0
2014-Nov-12 18:33N 52°28' E 004°40'0 0.0
2014-Nov-12 17:33N 52°28' E 004°40'0 0.0
2014-Nov-12 16:33N 52°28' E 004°40'0 0.0
2014-Nov-12 15:33N 52°28' E 004°40'0 0.0
2014-Nov-12 14:33N 52°28' E 004°40'0 0.0
2014-Nov-12 13:33N 52°28' E 004°40'0 0.0
2014-Nov-12 12:33N 52°28' E 004°40'0 0.0
2014-Nov-12 11:33N 52°28' E 004°40'0 0.0
2014-Nov-12 10:34N 52°28' E 004°40'0 0.0
2014-Nov-12 09:33N 52°28' E 004°40'0 0.0
2014-Nov-12 08:33N 52°28' E 004°40'0 0.0
2014-Nov-12 07:33N 52°28' E 004°40'0 0.0
2014-Nov-12 06:33N 52°28' E 004°40'0 0.0
2014-Nov-12 05:34N 52°28' E 004°40'0 0.0
2014-Nov-12 04:33N 52°28' E 004°40'0 0.0
2014-Nov-12 03:34N 52°28' E 004°40'0 0.0
2014-Nov-12 02:33N 52°28' E 004°40'0 0.0
2014-Nov-12 01:33N 52°28' E 004°40'0 0.0
2014-Nov-12 00:33N 52°28' E 004°40'0 0.0
2014-Nov-11 23:33N 52°28' E 004°40'0 0.0
2014-Nov-11 22:34N 52°28' E 004°40'0 0.0
2014-Nov-11 21:33N 52°28' E 004°40'0 0.0
2014-Nov-11 20:33N 52°28' E 004°40'0 0.0
2014-Nov-11 19:33N 52°28' E 004°40'2 2.4
2014-Nov-11 18:34N 52°28' E 004°36'5 5.2
2014-Nov-11 17:34N 52°31' E 004°29'1212.2
2014-Nov-11 16:33N 52°43' E 004°30'1313.3
2014-Nov-11 15:34N 52°56' E 004°29'  

Dump ship's entire track history